sensor_id;sensor_type;location;lat;lon;timestamp;P1;durP1;ratioP1;P2;durP2;ratioP2
71572;SDS011;59408;51.032;9.410;2022-07-30T09:53:44;12.43;;;7.70;;
71572;SDS011;59408;51.032;9.410;2022-07-30T09:56:22;11.82;;;7.47;;
71572;SDS011;59408;51.032;9.410;2022-07-30T09:58:50;11.40;;;7.30;;
71572;SDS011;59408;51.032;9.410;2022-07-30T10:01:17;10.35;;;6.65;;
71572;SDS011;59408;51.032;9.410;2022-07-30T10:03:44;10.00;;;7.30;;
71572;SDS011;59408;51.032;9.410;2022-07-30T10:06:13;11.60;;;6.90;;
71572;SDS011;59408;51.032;9.410;2022-07-30T10:08:43;9.95;;;6.30;;
71572;SDS011;59408;51.032;9.410;2022-07-30T10:11:12;9.40;;;6.57;;
71572;SDS011;59408;51.032;9.410;2022-07-30T10:13:41;12.52;;;7.43;;
71572;SDS011;59408;51.032;9.410;2022-07-30T10:16:11;9.85;;;6.03;;
71572;SDS011;59408;51.032;9.410;2022-07-30T10:18:39;12.20;;;6.73;;
71572;SDS011;59408;51.032;9.410;2022-07-30T10:21:07;9.57;;;6.57;;
71572;SDS011;59408;51.032;9.410;2022-07-30T10:23:34;9.98;;;6.65;;
71572;SDS011;59408;51.032;9.410;2022-07-30T10:26:10;9.68;;;6.47;;
71572;SDS011;59408;51.032;9.410;2022-07-30T10:28:42;10.30;;;6.50;;
71572;SDS011;59408;51.032;9.410;2022-07-30T10:31:09;12.23;;;6.50;;
71572;SDS011;59408;51.032;9.410;2022-07-30T10:33:56;9.80;;;7.13;;
71572;SDS011;59408;51.032;9.410;2022-07-30T10:36:23;11.85;;;7.35;;
71572;SDS011;59408;51.032;9.410;2022-07-30T10:38:51;8.25;;;6.05;;
71572;SDS011;59408;51.032;9.410;2022-07-30T10:41:25;10.57;;;6.82;;
71572;SDS011;59408;51.032;9.410;2022-07-30T10:47:10;8.43;;;6.17;;
71572;SDS011;59408;51.032;9.410;2022-07-30T10:52:44;10.32;;;6.47;;
71572;SDS011;59408;51.032;9.410;2022-07-30T10:55:12;10.95;;;6.40;;
71572;SDS011;59408;51.032;9.410;2022-07-30T11:00:31;11.63;;;6.23;;
71572;SDS011;59408;51.032;9.410;2022-07-30T11:03:13;10.07;;;6.38;;
71572;SDS011;59408;51.032;9.410;2022-07-30T11:05:44;12.73;;;7.40;;
71572;SDS011;59408;51.032;9.410;2022-07-30T11:08:29;11.85;;;7.07;;
71572;SDS011;59408;51.032;9.410;2022-07-30T11:17:22;9.95;;;7.05;;
71572;SDS011;59408;51.032;9.410;2022-07-30T11:20:08;9.95;;;7.13;;
71572;SDS011;59408;51.032;9.410;2022-07-30T11:22:37;10.07;;;6.80;;
71572;SDS011;59408;51.032;9.410;2022-07-30T11:25:06;9.23;;;6.63;;
71572;SDS011;59408;51.032;9.410;2022-07-30T11:27:39;11.20;;;6.77;;
71572;SDS011;59408;51.032;9.410;2022-07-30T11:36:07;10.27;;;6.80;;
71572;SDS011;59408;51.032;9.410;2022-07-30T11:38:49;10.98;;;7.40;;
71572;SDS011;59408;51.032;9.410;2022-07-30T11:41:17;12.53;;;6.83;;
71572;SDS011;59408;51.032;9.410;2022-07-30T11:43:44;9.48;;;7.55;;
71572;SDS011;59408;51.032;9.410;2022-07-30T11:46:13;8.98;;;6.82;;
71572;SDS011;59408;51.032;9.410;2022-07-30T11:48:42;10.65;;;6.80;;
71572;SDS011;59408;51.032;9.410;2022-07-30T11:51:20;9.82;;;6.90;;
71572;SDS011;59408;51.032;9.410;2022-07-30T11:53:58;10.47;;;6.87;;
71572;SDS011;59408;51.032;9.410;2022-07-30T11:56:25;10.00;;;6.55;;
71572;SDS011;59408;51.032;9.410;2022-07-30T11:59:01;9.98;;;6.78;;
71572;SDS011;59408;51.032;9.410;2022-07-30T12:01:31;9.80;;;7.20;;
71572;SDS011;59408;51.032;9.410;2022-07-30T12:04:01;10.20;;;6.35;;
71572;SDS011;59408;51.032;9.410;2022-07-30T12:06:28;8.57;;;6.30;;
71572;SDS011;59408;51.032;9.410;2022-07-30T12:08:55;9.68;;;6.50;;
71572;SDS011;59408;51.032;9.410;2022-07-30T12:11:24;8.38;;;6.20;;
71572;SDS011;59408;51.032;9.410;2022-07-30T12:13:54;10.90;;;6.35;;
71572;SDS011;59408;51.032;9.410;2022-07-30T12:16:21;9.38;;;6.88;;
71572;SDS011;59408;51.032;9.410;2022-07-30T12:18:49;11.87;;;6.43;;
71572;SDS011;59408;51.032;9.410;2022-07-30T12:21:16;10.13;;;5.95;;
71572;SDS011;59408;51.032;9.410;2022-07-30T12:23:52;9.70;;;6.07;;
71572;SDS011;59408;51.032;9.410;2022-07-30T12:26:19;9.90;;;5.97;;
71572;SDS011;59408;51.032;9.410;2022-07-30T12:28:47;10.35;;;6.30;;
71572;SDS011;59408;51.032;9.410;2022-07-30T12:31:14;9.90;;;5.77;;
71572;SDS011;59408;51.032;9.410;2022-07-30T12:33:41;9.68;;;6.03;;
71572;SDS011;59408;51.032;9.410;2022-07-30T12:36:09;9.05;;;5.45;;
71572;SDS011;59408;51.032;9.410;2022-07-30T12:38:49;9.75;;;5.60;;
71572;SDS011;59408;51.032;9.410;2022-07-30T12:41:16;8.30;;;5.70;;
71572;SDS011;59408;51.032;9.410;2022-07-30T12:43:44;8.93;;;5.87;;
71572;SDS011;59408;51.032;9.410;2022-07-30T12:46:13;9.02;;;5.53;;
71572;SDS011;59408;51.032;9.410;2022-07-30T12:48:50;9.43;;;6.32;;
71572;SDS011;59408;51.032;9.410;2022-07-30T12:51:21;8.63;;;5.50;;
71572;SDS011;59408;51.032;9.410;2022-07-30T12:53:48;11.05;;;6.20;;
71572;SDS011;59408;51.032;9.410;2022-07-30T12:56:17;8.47;;;5.37;;
71572;SDS011;59408;51.032;9.410;2022-07-30T12:58:44;10.38;;;5.20;;
71572;SDS011;59408;51.032;9.410;2022-07-30T13:01:14;8.95;;;5.25;;
71572;SDS011;59408;51.032;9.410;2022-07-30T13:03:41;8.63;;;5.63;;
71572;SDS011;59408;51.032;9.410;2022-07-30T13:06:12;9.10;;;5.47;;
71572;SDS011;59408;51.032;9.410;2022-07-30T13:08:45;9.83;;;5.10;;
71572;SDS011;59408;51.032;9.410;2022-07-30T13:11:13;9.33;;;4.83;;
71572;SDS011;59408;51.032;9.410;2022-07-30T13:13:40;7.93;;;5.15;;
71572;SDS011;59408;51.032;9.410;2022-07-30T13:16:07;8.57;;;4.90;;
71572;SDS011;59408;51.032;9.410;2022-07-30T13:18:34;10.75;;;5.32;;
71572;SDS011;59408;51.032;9.410;2022-07-30T13:21:01;8.50;;;5.50;;
71572;SDS011;59408;51.032;9.410;2022-07-30T13:23:29;8.87;;;5.47;;
71572;SDS011;59408;51.032;9.410;2022-07-30T13:25:57;9.77;;;4.78;;
71572;SDS011;59408;51.032;9.410;2022-07-30T13:28:24;8.90;;;5.00;;
71572;SDS011;59408;51.032;9.410;2022-07-30T13:30:51;9.63;;;4.93;;
71572;SDS011;59408;51.032;9.410;2022-07-30T13:33:18;10.73;;;4.78;;
71572;SDS011;59408;51.032;9.410;2022-07-30T13:35:45;6.77;;;4.90;;
71572;SDS011;59408;51.032;9.410;2022-07-30T13:38:11;8.95;;;4.28;;
71572;SDS011;59408;51.032;9.410;2022-07-30T13:40:38;8.07;;;5.30;;
71572;SDS011;59408;51.032;9.410;2022-07-30T13:43:06;9.82;;;5.22;;
71572;SDS011;59408;51.032;9.410;2022-07-30T13:45:33;10.18;;;4.90;;
71572;SDS011;59408;51.032;9.410;2022-07-30T13:48:01;8.17;;;4.70;;
71572;SDS011;59408;51.032;9.410;2022-07-30T13:50:28;9.93;;;4.75;;
71572;SDS011;59408;51.032;9.410;2022-07-30T13:53:13;9.43;;;5.15;;
71572;SDS011;59408;51.032;9.410;2022-07-30T13:55:40;11.25;;;4.80;;
71572;SDS011;59408;51.032;9.410;2022-07-30T13:58:09;8.85;;;4.70;;
71572;SDS011;59408;51.032;9.410;2022-07-30T14:00:36;7.13;;;4.60;;
71572;SDS011;59408;51.032;9.410;2022-07-30T14:03:15;9.25;;;4.97;;
71572;SDS011;59408;51.032;9.410;2022-07-30T14:05:42;7.32;;;5.07;;
71572;SDS011;59408;51.032;9.410;2022-07-30T14:08:09;7.38;;;4.68;;
71572;SDS011;59408;51.032;9.410;2022-07-30T14:10:37;7.43;;;5.05;;
71572;SDS011;59408;51.032;9.410;2022-07-30T14:13:05;7.57;;;5.03;;
71572;SDS011;59408;51.032;9.410;2022-07-30T14:15:34;8.52;;;4.78;;
71572;SDS011;59408;51.032;9.410;2022-07-30T14:18:00;9.48;;;5.15;;
71572;SDS011;59408;51.032;9.410;2022-07-30T14:20:28;6.90;;;4.55;;
71572;SDS011;59408;51.032;9.410;2022-07-30T14:22:54;8.93;;;4.72;;
71572;SDS011;59408;51.032;9.410;2022-07-30T14:25:21;7.67;;;4.90;;
71572;SDS011;59408;51.032;9.410;2022-07-30T14:27:48;6.78;;;4.43;;
71572;SDS011;59408;51.032;9.410;2022-07-30T14:30:14;8.10;;;4.68;;
71572;SDS011;59408;51.032;9.410;2022-07-30T14:32:42;8.93;;;4.90;;
71572;SDS011;59408;51.032;9.410;2022-07-30T14:35:10;7.90;;;4.68;;
71572;SDS011;59408;51.032;9.410;2022-07-30T14:37:37;8.27;;;4.80;;
71572;SDS011;59408;51.032;9.410;2022-07-30T14:40:06;6.80;;;4.90;;
71572;SDS011;59408;51.032;9.410;2022-07-30T14:42:34;8.90;;;4.97;;
71572;SDS011;59408;51.032;9.410;2022-07-30T14:45:01;8.90;;;4.70;;
71572;SDS011;59408;51.032;9.410;2022-07-30T14:47:27;8.10;;;4.10;;
71572;SDS011;59408;51.032;9.410;2022-07-30T14:49:55;10.37;;;4.93;;
71572;SDS011;59408;51.032;9.410;2022-07-30T14:52:22;8.45;;;4.50;;
71572;SDS011;59408;51.032;9.410;2022-07-30T14:54:48;7.72;;;4.78;;
71572;SDS011;59408;51.032;9.410;2022-07-30T14:57:15;10.63;;;5.32;;
71572;SDS011;59408;51.032;9.410;2022-07-30T14:59:41;9.60;;;4.97;;
71572;SDS011;59408;51.032;9.410;2022-07-30T15:02:08;8.67;;;5.03;;
71572;SDS011;59408;51.032;9.410;2022-07-30T15:04:36;8.73;;;4.95;;
71572;SDS011;59408;51.032;9.410;2022-07-30T15:07:04;8.07;;;4.85;;
71572;SDS011;59408;51.032;9.410;2022-07-30T15:09:32;7.65;;;4.60;;
71572;SDS011;59408;51.032;9.410;2022-07-30T15:11:58;8.95;;;4.72;;
71572;SDS011;59408;51.032;9.410;2022-07-30T15:14:34;10.37;;;4.60;;
71572;SDS011;59408;51.032;9.410;2022-07-30T15:17:01;9.95;;;5.55;;
71572;SDS011;59408;51.032;9.410;2022-07-30T15:19:29;11.93;;;5.15;;
71572;SDS011;59408;51.032;9.410;2022-07-30T15:21:57;8.18;;;5.05;;
71572;SDS011;59408;51.032;9.410;2022-07-30T15:24:25;8.75;;;5.38;;
71572;SDS011;59408;51.032;9.410;2022-07-30T15:26:52;8.57;;;5.27;;
71572;SDS011;59408;51.032;9.410;2022-07-30T15:29:18;8.65;;;5.18;;
71572;SDS011;59408;51.032;9.410;2022-07-30T15:31:45;8.40;;;5.40;;
71572;SDS011;59408;51.032;9.410;2022-07-30T15:34:11;8.32;;;5.07;;
71572;SDS011;59408;51.032;9.410;2022-07-30T15:36:38;8.50;;;5.57;;
71572;SDS011;59408;51.032;9.410;2022-07-30T15:39:05;8.77;;;4.70;;
71572;SDS011;59408;51.032;9.410;2022-07-30T15:41:33;8.23;;;5.22;;
71572;SDS011;59408;51.032;9.410;2022-07-30T15:43:59;7.20;;;5.22;;
71572;SDS011;59408;51.032;9.410;2022-07-30T15:46:26;8.23;;;5.63;;
71572;SDS011;59408;51.032;9.410;2022-07-30T15:48:53;9.35;;;5.50;;
71572;SDS011;59408;51.032;9.410;2022-07-30T15:51:19;7.70;;;5.17;;
71572;SDS011;59408;51.032;9.410;2022-07-30T15:53:46;9.52;;;5.80;;
71572;SDS011;59408;51.032;9.410;2022-07-30T15:56:12;9.93;;;5.65;;
71572;SDS011;59408;51.032;9.410;2022-07-30T15:58:40;7.93;;;6.03;;
71572;SDS011;59408;51.032;9.410;2022-07-30T16:01:08;9.60;;;5.63;;
71572;SDS011;59408;51.032;9.410;2022-07-30T16:03:35;8.50;;;5.77;;
71572;SDS011;59408;51.032;9.410;2022-07-30T16:06:02;9.02;;;5.55;;
71572;SDS011;59408;51.032;9.410;2022-07-30T16:08:29;9.82;;;6.22;;
71572;SDS011;59408;51.032;9.410;2022-07-30T16:10:55;8.35;;;5.95;;
71572;SDS011;59408;51.032;9.410;2022-07-30T16:13:23;8.02;;;5.70;;
71572;SDS011;59408;51.032;9.410;2022-07-30T16:15:51;7.60;;;5.00;;
71572;SDS011;59408;51.032;9.410;2022-07-30T16:18:17;8.45;;;5.60;;
71572;SDS011;59408;51.032;9.410;2022-07-30T16:20:44;9.98;;;5.40;;
71572;SDS011;59408;51.032;9.410;2022-07-30T16:23:10;9.60;;;5.68;;
71572;SDS011;59408;51.032;9.410;2022-07-30T16:25:43;10.68;;;5.90;;
71572;SDS011;59408;51.032;9.410;2022-07-30T16:28:09;9.17;;;5.87;;
71572;SDS011;59408;51.032;9.410;2022-07-30T16:30:37;10.73;;;6.30;;
71572;SDS011;59408;51.032;9.410;2022-07-30T16:33:18;8.70;;;6.30;;
71572;SDS011;59408;51.032;9.410;2022-07-30T16:35:45;8.88;;;6.25;;
71572;SDS011;59408;51.032;9.410;2022-07-30T16:38:16;9.63;;;6.47;;
71572;SDS011;59408;51.032;9.410;2022-07-30T16:40:43;11.25;;;6.70;;
71572;SDS011;59408;51.032;9.410;2022-07-30T16:43:09;7.83;;;5.60;;
71572;SDS011;59408;51.032;9.410;2022-07-30T16:45:36;9.40;;;6.13;;
71572;SDS011;59408;51.032;9.410;2022-07-30T16:48:03;11.15;;;6.20;;
71572;SDS011;59408;51.032;9.410;2022-07-30T16:50:31;10.88;;;5.90;;
71572;SDS011;59408;51.032;9.410;2022-07-30T16:52:58;8.65;;;6.68;;
71572;SDS011;59408;51.032;9.410;2022-07-30T16:55:25;10.33;;;6.13;;
71572;SDS011;59408;51.032;9.410;2022-07-30T16:57:51;8.45;;;5.57;;
71572;SDS011;59408;51.032;9.410;2022-07-30T17:00:18;10.80;;;6.07;;
71572;SDS011;59408;51.032;9.410;2022-07-30T17:02:44;9.75;;;6.15;;
71572;SDS011;59408;51.032;9.410;2022-07-30T17:05:11;9.07;;;6.25;;
71572;SDS011;59408;51.032;9.410;2022-07-30T17:07:40;8.67;;;5.63;;
71572;SDS011;59408;51.032;9.410;2022-07-30T17:10:07;8.20;;;5.40;;
71572;SDS011;59408;51.032;9.410;2022-07-30T17:12:36;9.35;;;6.07;;
71572;SDS011;59408;51.032;9.410;2022-07-30T17:15:03;8.10;;;5.82;;
71572;SDS011;59408;51.032;9.410;2022-07-30T17:17:30;8.68;;;5.70;;
71572;SDS011;59408;51.032;9.410;2022-07-30T17:19:57;9.70;;;5.77;;
71572;SDS011;59408;51.032;9.410;2022-07-30T17:22:23;9.97;;;6.23;;
71572;SDS011;59408;51.032;9.410;2022-07-30T17:24:51;8.80;;;5.88;;
71572;SDS011;59408;51.032;9.410;2022-07-30T17:27:20;8.82;;;5.93;;
71572;SDS011;59408;51.032;9.410;2022-07-30T17:29:46;8.73;;;5.90;;
71572;SDS011;59408;51.032;9.410;2022-07-30T17:32:16;9.60;;;6.13;;
71572;SDS011;59408;51.032;9.410;2022-07-30T17:34:42;9.23;;;5.50;;
71572;SDS011;59408;51.032;9.410;2022-07-30T17:37:09;9.57;;;6.25;;
71572;SDS011;59408;51.032;9.410;2022-07-30T17:39:36;8.98;;;5.72;;
71572;SDS011;59408;51.032;9.410;2022-07-30T17:42:24;9.52;;;6.20;;
71572;SDS011;59408;51.032;9.410;2022-07-30T17:44:50;9.48;;;6.20;;
71572;SDS011;59408;51.032;9.410;2022-07-30T17:47:17;8.33;;;6.10;;
71572;SDS011;59408;51.032;9.410;2022-07-30T17:49:44;9.95;;;5.60;;
71572;SDS011;59408;51.032;9.410;2022-07-30T17:52:11;9.75;;;5.75;;
71572;SDS011;59408;51.032;9.410;2022-07-30T17:54:38;11.00;;;6.13;;
71572;SDS011;59408;51.032;9.410;2022-07-30T17:57:05;8.32;;;6.28;;
71572;SDS011;59408;51.032;9.410;2022-07-30T17:59:33;8.30;;;5.97;;
71572;SDS011;59408;51.032;9.410;2022-07-30T18:01:59;9.88;;;6.30;;
71572;SDS011;59408;51.032;9.410;2022-07-30T18:04:26;9.25;;;6.35;;
71572;SDS011;59408;51.032;9.410;2022-07-30T18:06:53;10.07;;;6.20;;
71572;SDS011;59408;51.032;9.410;2022-07-30T18:09:19;9.63;;;6.18;;
71572;SDS011;59408;51.032;9.410;2022-07-30T18:11:46;9.30;;;5.90;;
71572;SDS011;59408;51.032;9.410;2022-07-30T18:14:13;9.35;;;6.28;;
71572;SDS011;59408;51.032;9.410;2022-07-30T18:16:41;10.23;;;6.28;;
71572;SDS011;59408;51.032;9.410;2022-07-30T18:19:07;8.20;;;6.15;;
71572;SDS011;59408;51.032;9.410;2022-07-30T18:21:48;8.13;;;6.32;;
71572;SDS011;59408;51.032;9.410;2022-07-30T18:24:14;12.27;;;6.20;;
71572;SDS011;59408;51.032;9.410;2022-07-30T18:26:41;9.73;;;5.93;;
71572;SDS011;59408;51.032;9.410;2022-07-30T18:29:08;7.97;;;5.95;;
71572;SDS011;59408;51.032;9.410;2022-07-30T18:31:40;9.32;;;6.10;;
71572;SDS011;59408;51.032;9.410;2022-07-30T18:34:07;10.20;;;6.70;;
71572;SDS011;59408;51.032;9.410;2022-07-30T18:36:33;10.02;;;6.40;;
71572;SDS011;59408;51.032;9.410;2022-07-30T18:39:00;10.00;;;6.53;;
71572;SDS011;59408;51.032;9.410;2022-07-30T18:41:26;8.07;;;6.40;;
71572;SDS011;59408;51.032;9.410;2022-07-30T18:43:53;9.57;;;7.03;;
71572;SDS011;59408;51.032;9.410;2022-07-30T18:46:20;12.20;;;7.22;;
71572;SDS011;59408;51.032;9.410;2022-07-30T18:48:47;11.50;;;6.90;;
71572;SDS011;59408;51.032;9.410;2022-07-30T18:51:14;10.00;;;6.83;;
71572;SDS011;59408;51.032;9.410;2022-07-30T18:53:41;9.20;;;7.15;;
71572;SDS011;59408;51.032;9.410;2022-07-30T18:56:08;8.77;;;6.65;;
71572;SDS011;59408;51.032;9.410;2022-07-30T18:58:34;9.45;;;6.53;;
71572;SDS011;59408;51.032;9.410;2022-07-30T19:01:01;11.13;;;6.57;;
71572;SDS011;59408;51.032;9.410;2022-07-30T19:03:28;9.27;;;7.00;;
71572;SDS011;59408;51.032;9.410;2022-07-30T19:05:56;9.43;;;7.32;;
71572;SDS011;59408;51.032;9.410;2022-07-30T19:08:22;10.23;;;6.82;;
71572;SDS011;59408;51.032;9.410;2022-07-30T19:10:49;9.13;;;6.75;;
71572;SDS011;59408;51.032;9.410;2022-07-30T19:13:15;10.05;;;6.78;;
71572;SDS011;59408;51.032;9.410;2022-07-30T19:15:42;8.97;;;6.97;;
71572;SDS011;59408;51.032;9.410;2022-07-30T19:18:08;11.57;;;6.70;;
71572;SDS011;59408;51.032;9.410;2022-07-30T19:20:35;9.77;;;6.53;;
71572;SDS011;59408;51.032;9.410;2022-07-30T19:23:03;10.07;;;7.07;;
71572;SDS011;59408;51.032;9.410;2022-07-30T19:25:32;10.02;;;7.22;;
71572;SDS011;59408;51.032;9.410;2022-07-30T19:27:59;9.73;;;7.00;;
71572;SDS011;59408;51.032;9.410;2022-07-30T19:30:27;12.13;;;7.50;;
71572;SDS011;59408;51.032;9.410;2022-07-30T19:32:54;10.48;;;6.63;;
71572;SDS011;59408;51.032;9.410;2022-07-30T19:35:26;9.85;;;7.00;;
71572;SDS011;59408;51.032;9.410;2022-07-30T19:37:53;11.30;;;7.57;;
71572;SDS011;59408;51.032;9.410;2022-07-30T19:40:21;10.57;;;7.65;;
71572;SDS011;59408;51.032;9.410;2022-07-30T19:42:52;12.27;;;7.23;;
71572;SDS011;59408;51.032;9.410;2022-07-30T19:45:21;10.63;;;7.83;;
71572;SDS011;59408;51.032;9.410;2022-07-30T19:47:48;10.23;;;7.97;;
71572;SDS011;59408;51.032;9.410;2022-07-30T19:50:15;9.40;;;7.05;;
71572;SDS011;59408;51.032;9.410;2022-07-30T19:52:41;11.18;;;7.97;;
71572;SDS011;59408;51.032;9.410;2022-07-30T19:55:17;10.15;;;8.02;;
71572;SDS011;59408;51.032;9.410;2022-07-30T19:58:02;11.03;;;7.67;;
71572;SDS011;59408;51.032;9.410;2022-07-30T20:00:29;11.50;;;9.50;;
71572;SDS011;59408;51.032;9.410;2022-07-30T20:03:00;12.02;;;9.60;;
71572;SDS011;59408;51.032;9.410;2022-07-30T20:05:28;10.88;;;8.02;;
71572;SDS011;59408;51.032;9.410;2022-07-30T20:07:55;10.93;;;7.72;;
71572;SDS011;59408;51.032;9.410;2022-07-30T20:10:22;12.47;;;9.57;;
71572;SDS011;59408;51.032;9.410;2022-07-30T20:12:49;12.40;;;8.85;;
71572;SDS011;59408;51.032;9.410;2022-07-30T20:15:16;11.57;;;8.48;;
71572;SDS011;59408;51.032;9.410;2022-07-30T20:17:43;12.48;;;8.32;;
71572;SDS011;59408;51.032;9.410;2022-07-30T20:20:11;11.50;;;8.48;;
71572;SDS011;59408;51.032;9.410;2022-07-30T20:22:38;15.17;;;10.97;;
71572;SDS011;59408;51.032;9.410;2022-07-30T20:25:06;14.73;;;11.65;;
71572;SDS011;59408;51.032;9.410;2022-07-30T20:27:34;13.75;;;10.88;;
71572;SDS011;59408;51.032;9.410;2022-07-30T20:30:04;14.90;;;10.60;;
71572;SDS011;59408;51.032;9.410;2022-07-30T20:32:34;13.02;;;11.13;;
71572;SDS011;59408;51.032;9.410;2022-07-30T20:35:01;15.00;;;11.43;;
71572;SDS011;59408;51.032;9.410;2022-07-30T20:37:28;15.97;;;11.53;;
71572;SDS011;59408;51.032;9.410;2022-07-30T20:39:55;15.80;;;10.20;;
71572;SDS011;59408;51.032;9.410;2022-07-30T20:42:22;14.10;;;10.05;;
71572;SDS011;59408;51.032;9.410;2022-07-30T20:44:49;13.23;;;10.60;;
71572;SDS011;59408;51.032;9.410;2022-07-30T20:47:16;13.85;;;10.82;;
71572;SDS011;59408;51.032;9.410;2022-07-30T20:50:01;11.63;;;9.40;;
71572;SDS011;59408;51.032;9.410;2022-07-30T20:52:28;12.07;;;9.65;;
71572;SDS011;59408;51.032;9.410;2022-07-30T20:54:55;13.82;;;10.13;;
71572;SDS011;59408;51.032;9.410;2022-07-30T20:57:22;13.15;;;9.90;;
71572;SDS011;59408;51.032;9.410;2022-07-30T21:00:09;12.70;;;9.35;;
71572;SDS011;59408;51.032;9.410;2022-07-30T21:02:38;12.50;;;9.13;;
71572;SDS011;59408;51.032;9.410;2022-07-30T21:05:06;11.87;;;8.87;;
71572;SDS011;59408;51.032;9.410;2022-07-30T21:07:39;11.77;;;9.20;;
71572;SDS011;59408;51.032;9.410;2022-07-30T21:10:09;14.00;;;9.25;;
71572;SDS011;59408;51.032;9.410;2022-07-30T21:12:37;13.55;;;10.20;;
71572;SDS011;59408;51.032;9.410;2022-07-30T21:15:05;12.93;;;9.95;;
71572;SDS011;59408;51.032;9.410;2022-07-30T21:17:49;11.33;;;9.03;;
71572;SDS011;59408;51.032;9.410;2022-07-30T21:20:17;13.68;;;9.23;;
71572;SDS011;59408;51.032;9.410;2022-07-30T21:22:53;11.38;;;9.60;;
71572;SDS011;59408;51.032;9.410;2022-07-30T21:25:20;11.35;;;8.43;;
71572;SDS011;59408;51.032;9.410;2022-07-30T21:28:07;13.73;;;10.00;;
71572;SDS011;59408;51.032;9.410;2022-07-30T21:30:43;12.83;;;9.90;;
71572;SDS011;59408;51.032;9.410;2022-07-30T21:33:10;13.03;;;9.80;;
71572;SDS011;59408;51.032;9.410;2022-07-30T21:35:38;11.57;;;9.55;;
71572;SDS011;59408;51.032;9.410;2022-07-30T21:38:06;12.20;;;9.68;;
71572;SDS011;59408;51.032;9.410;2022-07-30T21:40:34;11.68;;;9.45;;
71572;SDS011;59408;51.032;9.410;2022-07-30T21:43:02;13.65;;;10.20;;
71572;SDS011;59408;51.032;9.410;2022-07-30T21:45:33;11.93;;;9.43;;
71572;SDS011;59408;51.032;9.410;2022-07-30T21:48:05;13.73;;;9.20;;
71572;SDS011;59408;51.032;9.410;2022-07-30T21:50:32;12.57;;;9.60;;
71572;SDS011;59408;51.032;9.410;2022-07-30T21:53:00;13.82;;;10.30;;
71572;SDS011;59408;51.032;9.410;2022-07-30T21:55:27;15.32;;;9.68;;
71572;SDS011;59408;51.032;9.410;2022-07-30T21:58:14;13.00;;;9.57;;
71572;SDS011;59408;51.032;9.410;2022-07-30T22:00:58;13.83;;;9.03;;
71572;SDS011;59408;51.032;9.410;2022-07-30T22:03:41;13.80;;;10.10;;
71572;SDS011;59408;51.032;9.410;2022-07-30T22:06:28;12.32;;;9.98;;
71572;SDS011;59408;51.032;9.410;2022-07-30T22:08:56;13.73;;;9.73;;
71572;SDS011;59408;51.032;9.410;2022-07-30T22:11:23;12.00;;;9.57;;
71572;SDS011;59408;51.032;9.410;2022-07-30T22:14:08;12.63;;;9.88;;
71572;SDS011;59408;51.032;9.410;2022-07-30T22:16:34;12.47;;;10.00;;
71572;SDS011;59408;51.032;9.410;2022-07-30T22:19:01;12.68;;;9.55;;
71572;SDS011;59408;51.032;9.410;2022-07-30T22:21:29;12.65;;;9.98;;
71572;SDS011;59408;51.032;9.410;2022-07-30T22:23:57;12.27;;;9.30;;
71572;SDS011;59408;51.032;9.410;2022-07-30T22:26:25;11.00;;;8.98;;
71572;SDS011;59408;51.032;9.410;2022-07-30T22:28:52;12.77;;;9.10;;
71572;SDS011;59408;51.032;9.410;2022-07-30T22:31:19;12.27;;;9.83;;
71572;SDS011;59408;51.032;9.410;2022-07-30T22:33:47;13.90;;;10.73;;
71572;SDS011;59408;51.032;9.410;2022-07-30T22:36:33;13.30;;;9.63;;
71572;SDS011;59408;51.032;9.410;2022-07-30T22:39:01;11.07;;;9.35;;
71572;SDS011;59408;51.032;9.410;2022-07-30T22:41:34;13.40;;;9.30;;
71572;SDS011;59408;51.032;9.410;2022-07-30T22:44:00;11.40;;;9.40;;
71572;SDS011;59408;51.032;9.410;2022-07-30T22:46:27;15.30;;;10.33;;
71572;SDS011;59408;51.032;9.410;2022-07-30T22:48:56;15.73;;;11.65;;
71572;SDS011;59408;51.032;9.410;2022-07-30T22:51:24;13.75;;;11.35;;
71572;SDS011;59408;51.032;9.410;2022-07-30T22:54:12;13.95;;;11.10;;
71572;SDS011;59408;51.032;9.410;2022-07-30T22:56:40;13.60;;;10.10;;
71572;SDS011;59408;51.032;9.410;2022-07-30T22:59:06;12.63;;;9.27;;
71572;SDS011;59408;51.032;9.410;2022-07-30T23:01:33;13.03;;;9.67;;
71572;SDS011;59408;51.032;9.410;2022-07-30T23:04:00;12.80;;;9.60;;
71572;SDS011;59408;51.032;9.410;2022-07-30T23:06:27;13.65;;;10.00;;
71572;SDS011;59408;51.032;9.410;2022-07-30T23:09:15;13.35;;;10.30;;
71572;SDS011;59408;51.032;9.410;2022-07-30T23:11:41;11.85;;;9.88;;
71572;SDS011;59408;51.032;9.410;2022-07-30T23:14:08;12.03;;;9.77;;
71572;SDS011;59408;51.032;9.410;2022-07-30T23:16:36;14.20;;;9.77;;
71572;SDS011;59408;51.032;9.410;2022-07-30T23:19:03;12.93;;;9.85;;
71572;SDS011;59408;51.032;9.410;2022-07-30T23:21:31;11.98;;;10.07;;
71572;SDS011;59408;51.032;9.410;2022-07-30T23:23:57;12.98;;;10.48;;
71572;SDS011;59408;51.032;9.410;2022-07-30T23:26:25;13.05;;;10.48;;
71572;SDS011;59408;51.032;9.410;2022-07-30T23:28:52;14.68;;;10.27;;
71572;SDS011;59408;51.032;9.410;2022-07-30T23:31:18;11.77;;;9.33;;
71572;SDS011;59408;51.032;9.410;2022-07-30T23:33:51;12.43;;;9.68;;
71572;SDS011;59408;51.032;9.410;2022-07-30T23:36:18;13.23;;;9.70;;
71572;SDS011;59408;51.032;9.410;2022-07-30T23:38:44;12.35;;;9.75;;
71572;SDS011;59408;51.032;9.410;2022-07-30T23:41:11;12.07;;;10.13;;
71572;SDS011;59408;51.032;9.410;2022-07-30T23:43:39;12.97;;;10.00;;
71572;SDS011;59408;51.032;9.410;2022-07-30T23:46:06;11.77;;;9.47;;
71572;SDS011;59408;51.032;9.410;2022-07-30T23:48:36;12.65;;;9.85;;
71572;SDS011;59408;51.032;9.410;2022-07-30T23:51:03;11.52;;;9.50;;
71572;SDS011;59408;51.032;9.410;2022-07-30T23:53:29;11.98;;;9.32;;
71572;SDS011;59408;51.032;9.410;2022-07-30T23:55:56;13.27;;;11.00;;
71572;SDS011;59408;51.032;9.410;2022-07-30T23:58:22;13.13;;;9.57;;
